createdAt,value
2018-09-16T00:01:14.745Z,95.90
2018-09-16T00:03:42.934Z,96.20
2018-09-16T00:06:11.141Z,95.80
2018-09-16T00:08:39.378Z,95.40
2018-09-16T00:11:07.665Z,95.50
2018-09-16T00:13:35.868Z,95.40
2018-09-16T00:16:04.164Z,95.20
2018-09-16T00:18:32.349Z,95.90
2018-09-16T00:21:00.614Z,96.20
2018-09-16T00:23:28.814Z,95.90
2018-09-16T00:25:57.026Z,96.60
2018-09-16T00:28:25.198Z,96.10
2018-09-16T00:30:53.405Z,95.90
2018-09-16T00:33:21.582Z,95.90
2018-09-16T00:35:49.800Z,95.80
2018-09-16T00:38:17.977Z,95.40
2018-09-16T00:40:46.214Z,95.80
2018-09-16T00:43:14.398Z,96.20
2018-09-16T00:45:42.642Z,96.40
2018-09-16T00:48:10.853Z,96.00
2018-09-16T00:50:39.077Z,96.80
2018-09-16T00:53:07.274Z,97.20
2018-09-16T00:55:35.477Z,97.80
2018-09-16T00:58:03.652Z,97.70
2018-09-16T01:00:32.054Z,98.30
2018-09-16T01:03:00.202Z,98.50
2018-09-16T01:05:28.556Z,97.70
2018-09-16T01:07:56.823Z,97.00
2018-09-16T01:10:25.037Z,96.90
2018-09-16T01:12:53.241Z,97.00
2018-09-16T01:15:21.412Z,95.70
2018-09-16T01:17:49.612Z,95.70
2018-09-16T01:20:17.769Z,96.00
2018-09-16T01:22:46.056Z,96.20
2018-09-16T01:25:14.242Z,95.90
2018-09-16T01:27:42.451Z,96.40
2018-09-16T01:30:10.716Z,96.30
2018-09-16T01:32:38.941Z,96.60
2018-09-16T01:35:07.161Z,97.10
2018-09-16T01:37:40.799Z,96.90
2018-09-16T01:40:08.991Z,96.70
2018-09-16T01:42:37.200Z,97.00
2018-09-16T01:45:05.447Z,97.50
2018-09-16T01:47:33.645Z,97.00
2018-09-16T01:50:01.850Z,96.60
2018-09-16T01:52:30.069Z,96.40
2018-09-16T01:54:58.233Z,96.60
2018-09-16T01:57:26.445Z,96.40
2018-09-16T01:59:54.636Z,96.60
2018-09-16T02:02:22.854Z,96.70
2018-09-16T02:04:51.620Z,96.80
2018-09-16T02:07:19.932Z,96.80
2018-09-16T02:09:48.102Z,96.20
2018-09-16T02:12:16.341Z,96.60
2018-09-16T02:14:44.513Z,97.10
2018-09-16T02:17:12.737Z,97.20
2018-09-16T02:19:40.913Z,96.90
2018-09-16T02:22:09.187Z,96.90
2018-09-16T02:24:37.381Z,96.10
2018-09-16T02:27:05.596Z,96.30
2018-09-16T02:29:33.764Z,96.10
2018-09-16T02:32:02.001Z,95.70
2018-09-16T02:34:30.253Z,95.50
2018-09-16T02:36:58.457Z,95.40
2018-09-16T02:39:26.697Z,95.50
2018-09-16T02:41:54.893Z,96.10
2018-09-16T02:44:23.121Z,95.90
2018-09-16T02:46:51.326Z,96.40
2018-09-16T02:49:19.553Z,95.90
2018-09-16T02:51:47.716Z,96.50
2018-09-16T02:54:15.933Z,97.00
2018-09-16T02:56:44.161Z,96.60
2018-09-16T02:59:12.392Z,96.10
2018-09-16T03:01:40.672Z,96.20
2018-09-16T03:04:08.875Z,97.00
2018-09-16T03:06:37.088Z,96.70
2018-09-16T03:09:06.357Z,96.50
2018-09-16T03:11:34.595Z,96.20
2018-09-16T03:14:02.806Z,96.20
2018-09-16T03:16:31.006Z,95.80
2018-09-16T03:18:59.201Z,95.80
2018-09-16T03:21:27.497Z,96.60
2018-09-16T03:23:55.714Z,95.80
2018-09-16T03:26:23.888Z,96.10
2018-09-16T03:28:52.101Z,95.90
2018-09-16T03:31:20.319Z,96.20
2018-09-16T03:33:48.554Z,95.70
2018-09-16T03:36:16.714Z,96.10
2018-09-16T03:38:44.920Z,96.00
2018-09-16T03:41:13.085Z,96.00
2018-09-16T03:43:41.302Z,96.00
2018-09-16T03:46:09.480Z,96.10
2018-09-16T03:48:37.709Z,96.50
2018-09-16T03:51:05.863Z,96.80
2018-09-16T03:53:34.088Z,96.60
2018-09-16T03:56:02.256Z,97.00
2018-09-16T03:58:30.621Z,96.70
2018-09-16T04:00:58.933Z,96.70
2018-09-16T04:03:27.105Z,96.90
2018-09-16T04:05:55.308Z,97.30
2018-09-16T04:08:23.477Z,97.70
2018-09-16T04:10:51.684Z,97.30
2018-09-16T04:13:19.857Z,97.00
2018-09-16T04:15:54.902Z,97.20
2018-09-16T04:18:23.080Z,96.40
2018-09-16T04:20:51.443Z,96.50
2018-09-16T04:23:19.632Z,96.50
2018-09-16T04:25:47.862Z,96.60
2018-09-16T04:28:16.044Z,97.20
2018-09-16T04:30:44.265Z,96.60
2018-09-16T04:33:12.451Z,96.80
2018-09-16T04:35:40.665Z,96.30
2018-09-16T04:38:08.833Z,96.70
2018-09-16T04:40:37.064Z,95.30
2018-09-16T04:43:05.329Z,95.90
2018-09-16T04:45:33.529Z,96.20
2018-09-16T04:48:01.715Z,96.70
2018-09-16T04:50:29.952Z,96.60
2018-09-16T04:52:58.166Z,96.40
2018-09-16T04:55:26.390Z,96.60
2018-09-16T04:57:54.601Z,96.40
2018-09-16T05:00:22.826Z,95.90
2018-09-16T05:02:51.009Z,96.00
2018-09-16T05:05:19.268Z,96.20
2018-09-16T05:07:47.438Z,95.80
2018-09-16T05:10:15.651Z,95.70
2018-09-16T05:12:43.849Z,95.40
2018-09-16T05:15:12.086Z,96.00
2018-09-16T05:17:40.277Z,95.80
2018-09-16T05:20:08.505Z,95.90
2018-09-16T05:22:36.743Z,95.70
2018-09-16T05:25:05.573Z,95.40
2018-09-16T05:27:33.784Z,95.30
2018-09-16T05:30:01.985Z,95.70
2018-09-16T05:32:30.263Z,96.10
2018-09-16T05:34:58.504Z,95.50
2018-09-16T05:37:26.716Z,95.30
2018-09-16T05:39:54.922Z,94.90
2018-09-16T05:42:23.141Z,94.70
2018-09-16T05:44:51.313Z,94.20
2018-09-16T05:47:19.533Z,94.10
2018-09-16T05:49:47.717Z,92.70
2018-09-16T05:52:15.916Z,93.60
2018-09-16T05:54:44.093Z,93.30
2018-09-16T05:57:12.309Z,93.20
2018-09-16T05:59:40.478Z,92.90
2018-09-16T06:02:08.885Z,93.30
2018-09-16T06:04:37.110Z,92.70
2018-09-16T06:07:05.335Z,91.60
2018-09-16T06:09:33.521Z,91.40
2018-09-16T06:12:01.792Z,90.30
2018-09-16T06:14:29.965Z,89.90
2018-09-16T06:16:58.194Z,89.70
2018-09-16T06:19:27.092Z,89.70
2018-09-16T06:21:56.235Z,89.70
2018-09-16T06:24:24.489Z,89.70
2018-09-16T06:26:52.717Z,89.40
2018-09-16T06:29:20.896Z,89.20
2018-09-16T06:31:49.125Z,89.20
2018-09-16T06:34:17.304Z,88.80
2018-09-16T06:36:45.548Z,88.20
2018-09-16T06:39:14.631Z,88.10
2018-09-16T06:41:42.969Z,87.60
2018-09-16T06:44:11.171Z,87.20
2018-09-16T06:46:39.482Z,86.70
2018-09-16T06:49:08.245Z,86.20
2018-09-16T06:51:36.810Z,86.10
2018-09-16T06:54:05.013Z,85.60
2018-09-16T06:56:33.211Z,84.60
2018-09-16T06:59:01.445Z,84.00
2018-09-16T07:01:29.670Z,82.10
2018-09-16T07:03:57.893Z,82.40
2018-09-16T07:06:26.078Z,82.90
2018-09-16T07:08:54.321Z,82.60
2018-09-16T07:11:22.545Z,82.80
2018-09-16T07:13:50.765Z,81.90
2018-09-16T07:16:18.985Z,81.60
2018-09-16T07:18:47.250Z,81.70
2018-09-16T07:21:15.473Z,81.70
2018-09-16T07:23:43.708Z,80.80
2018-09-16T07:26:11.920Z,81.00
2018-09-16T07:28:40.167Z,81.40
2018-09-16T07:31:08.378Z,81.60
2018-09-16T07:33:36.649Z,81.50
2018-09-16T07:36:04.981Z,80.90
2018-09-16T07:38:33.272Z,81.70
2018-09-16T07:41:01.473Z,81.60
2018-09-16T07:43:29.673Z,81.60
2018-09-16T07:45:57.868Z,81.40
2018-09-16T07:48:26.263Z,81.10
2018-09-16T07:50:54.651Z,79.50
2018-09-16T07:53:22.932Z,80.10
2018-09-16T07:55:51.202Z,79.80
2018-09-16T07:58:19.436Z,80.30
2018-09-16T08:00:47.622Z,80.50
2018-09-16T08:03:15.889Z,80.70
2018-09-16T08:05:44.045Z,80.00
2018-09-16T08:08:12.302Z,80.20
2018-09-16T08:10:40.486Z,80.00
2018-09-16T08:13:08.684Z,79.40
2018-09-16T08:15:36.961Z,79.60
2018-09-16T08:18:05.213Z,80.30
2018-09-16T08:20:33.484Z,79.70
2018-09-16T08:23:01.707Z,79.70
2018-09-16T08:25:29.912Z,79.10
2018-09-16T08:27:58.125Z,78.80
2018-09-16T08:30:26.425Z,79.10
2018-09-16T08:32:54.990Z,79.00
2018-09-16T08:35:23.286Z,79.20
2018-09-16T08:37:51.478Z,78.70
2018-09-16T08:40:19.829Z,79.30
2018-09-16T08:42:48.018Z,79.50
2018-09-16T08:45:16.225Z,78.00
2018-09-16T08:47:44.404Z,78.90
2018-09-16T08:50:12.686Z,78.40
2018-09-16T08:52:40.896Z,78.80
2018-09-16T08:55:09.137Z,77.20
2018-09-16T08:57:37.553Z,77.60
2018-09-16T09:00:07.275Z,76.80
2018-09-16T09:02:35.612Z,74.10
2018-09-16T09:05:04.219Z,74.10
2018-09-16T09:07:32.449Z,74.80
2018-09-16T09:10:00.872Z,73.50
2018-09-16T09:12:29.514Z,72.80
2018-09-16T09:14:58.116Z,74.00
2018-09-16T09:17:26.337Z,72.10
2018-09-16T09:19:54.628Z,72.40
2018-09-16T09:22:22.793Z,73.90
2018-09-16T09:24:51.096Z,72.40
2018-09-16T09:27:19.369Z,73.10
2018-09-16T09:29:47.597Z,73.30
2018-09-16T09:32:15.794Z,73.30
2018-09-16T09:34:44.004Z,71.60
2018-09-16T09:37:12.217Z,72.40
2018-09-16T09:39:40.368Z,73.30
2018-09-16T09:42:08.608Z,71.20
2018-09-16T09:44:36.772Z,72.30
2018-09-16T09:47:04.993Z,72.00
2018-09-16T09:49:33.172Z,72.60
2018-09-16T09:52:01.402Z,70.90
2018-09-16T09:54:29.560Z,72.60
2018-09-16T09:56:57.796Z,73.60
2018-09-16T09:59:26.134Z,70.70
2018-09-16T10:01:54.349Z,71.10
2018-09-16T10:04:22.705Z,71.20
2018-09-16T10:06:50.985Z,72.90
2018-09-16T10:09:19.187Z,71.20
2018-09-16T10:11:47.417Z,71.40
2018-09-16T10:14:15.639Z,72.00
2018-09-16T10:16:43.890Z,72.10
2018-09-16T10:19:12.166Z,71.30
2018-09-16T10:21:40.470Z,72.50
2018-09-16T10:24:09.205Z,71.70
2018-09-16T10:26:37.753Z,72.10
2018-09-16T10:29:06.204Z,73.10
2018-09-16T10:31:34.877Z,71.90
2018-09-16T10:34:03.238Z,70.80
2018-09-16T10:36:31.549Z,72.10
2018-09-16T10:38:59.965Z,72.00
2018-09-16T10:41:28.305Z,70.70
2018-09-16T10:43:56.698Z,71.00
2018-09-16T10:46:24.898Z,70.50
2018-09-16T10:48:53.129Z,71.80
2018-09-16T10:51:21.353Z,71.50
2018-09-16T10:53:49.618Z,72.40
2018-09-16T10:56:17.796Z,71.40
2018-09-16T10:58:46.006Z,71.40
2018-09-16T11:01:14.192Z,71.20
2018-09-16T11:03:42.404Z,70.50
2018-09-16T11:06:10.634Z,70.80
2018-09-16T11:08:38.853Z,71.00
2018-09-16T11:11:07.145Z,69.90
2018-09-16T11:13:35.359Z,70.10
2018-09-16T11:16:03.609Z,70.90
2018-09-16T11:18:31.834Z,70.60
2018-09-16T11:21:00.010Z,72.20
2018-09-16T11:23:28.254Z,70.30
2018-09-16T11:25:56.434Z,70.30
2018-09-16T11:28:24.654Z,71.50
2018-09-16T11:30:52.841Z,69.80
2018-09-16T11:33:21.077Z,68.70
2018-09-16T11:35:49.267Z,70.20
2018-09-16T11:38:17.502Z,70.30
2018-09-16T11:40:45.788Z,71.10
2018-09-16T11:43:14.013Z,71.20
2018-09-16T11:45:42.205Z,70.50
2018-09-16T11:48:10.423Z,69.40
2018-09-16T11:50:38.618Z,70.00
2018-09-16T11:53:06.864Z,71.30
2018-09-16T11:55:35.037Z,71.00
2018-09-16T11:58:03.253Z,70.90
2018-09-16T12:00:31.443Z,71.30
2018-09-16T12:02:59.697Z,71.10
2018-09-16T12:05:27.953Z,69.70
2018-09-16T12:07:56.165Z,69.00
2018-09-16T12:10:24.549Z,70.30
2018-09-16T12:12:52.777Z,70.40
2018-09-16T12:15:20.992Z,69.10
2018-09-16T12:17:49.218Z,69.80
2018-09-16T12:20:17.461Z,70.30
2018-09-16T12:22:45.737Z,70.00
2018-09-16T12:25:13.997Z,70.00
2018-09-16T12:27:42.196Z,69.80
2018-09-16T12:30:10.437Z,70.00
2018-09-16T12:32:38.671Z,69.40
2018-09-16T12:35:06.912Z,70.10
2018-09-16T12:37:35.242Z,70.00
2018-09-16T12:40:03.640Z,70.50
2018-09-16T12:42:31.879Z,71.20
2018-09-16T12:45:00.152Z,71.50
2018-09-16T12:47:28.368Z,73.00
2018-09-16T12:49:56.621Z,70.30
2018-09-16T12:52:24.817Z,71.40
2018-09-16T12:54:53.129Z,70.90
2018-09-16T12:57:21.315Z,70.30
2018-09-16T12:59:49.529Z,69.70
2018-09-16T13:02:17.721Z,71.40
2018-09-16T13:04:45.982Z,70.90
2018-09-16T13:07:14.309Z,71.20
2018-09-16T13:09:42.533Z,70.10
2018-09-16T13:12:10.713Z,70.20
2018-09-16T13:14:39.241Z,70.90
2018-09-16T13:17:07.469Z,70.20
2018-09-16T13:19:35.689Z,71.40
2018-09-16T13:22:03.906Z,70.90
2018-09-16T13:24:32.189Z,70.80
2018-09-16T13:27:00.449Z,70.60
2018-09-16T13:29:28.714Z,70.80
2018-09-16T13:31:56.909Z,71.00
2018-09-16T13:34:25.114Z,69.90
2018-09-16T13:36:53.306Z,70.70
2018-09-16T13:39:21.501Z,71.50
2018-09-16T13:41:49.719Z,71.00
2018-09-16T13:44:17.913Z,71.20
2018-09-16T13:46:46.136Z,70.70
2018-09-16T13:49:14.301Z,72.00
2018-09-16T13:51:43.401Z,69.90
2018-09-16T13:54:11.601Z,70.40
2018-09-16T13:56:39.805Z,70.80
2018-09-16T13:59:08.057Z,69.60
2018-09-16T14:01:36.484Z,70.00
2018-09-16T14:04:04.689Z,69.70
2018-09-16T14:06:32.959Z,70.70
2018-09-16T14:09:01.129Z,70.30
2018-09-16T14:11:29.358Z,70.30
2018-09-16T14:13:57.613Z,69.50
2018-09-16T14:16:25.812Z,67.40
2018-09-16T14:18:54.048Z,69.50
2018-09-16T14:21:22.293Z,68.40
2018-09-16T14:23:50.466Z,68.80
2018-09-16T14:26:18.706Z,70.70
2018-09-16T14:28:47.126Z,70.80
2018-09-16T14:31:15.385Z,70.90
2018-09-16T14:33:43.536Z,71.10
2018-09-16T14:36:11.788Z,69.90
2018-09-16T14:38:39.964Z,69.90
2018-09-16T14:41:08.199Z,70.50
2018-09-16T14:43:36.389Z,70.30
2018-09-16T14:46:04.648Z,69.60
2018-09-16T14:48:32.858Z,70.80
2018-09-16T14:51:01.145Z,69.90
2018-09-16T14:53:29.354Z,70.30
2018-09-16T14:55:57.638Z,68.90
2018-09-16T14:58:25.864Z,70.30
2018-09-16T15:00:54.093Z,70.60
2018-09-16T15:03:22.319Z,70.50
2018-09-16T15:05:50.517Z,70.10
2018-09-16T15:08:18.929Z,70.40
2018-09-16T15:10:48.094Z,70.30
2018-09-16T15:13:17.054Z,71.50
2018-09-16T15:15:45.702Z,71.50
2018-09-16T15:18:13.921Z,72.10
2018-09-16T15:20:42.100Z,72.20
2018-09-16T15:23:11.020Z,71.90
2018-09-16T15:25:39.229Z,72.70
2018-09-16T15:28:07.424Z,73.60
2018-09-16T15:30:35.664Z,72.80
2018-09-16T15:33:03.886Z,73.90
2018-09-16T15:35:32.102Z,74.30
2018-09-16T15:38:00.337Z,74.30
2018-09-16T15:40:28.542Z,75.30
2018-09-16T15:42:56.753Z,75.40
2018-09-16T15:45:24.981Z,74.60
2018-09-16T15:47:53.188Z,75.40
2018-09-16T15:50:22.174Z,75.60
2018-09-16T15:52:50.370Z,75.30
2018-09-16T15:55:18.801Z,76.80
2018-09-16T15:57:46.966Z,77.30
2018-09-16T16:00:15.163Z,76.50
2018-09-16T16:02:43.321Z,77.90
2018-09-16T16:05:11.510Z,77.80
2018-09-16T16:07:39.685Z,78.20
2018-09-16T16:10:07.913Z,78.60
2018-09-16T16:12:36.113Z,78.00
2018-09-16T16:15:04.705Z,78.80
2018-09-16T16:17:32.884Z,78.60
2018-09-16T16:20:01.170Z,79.00
2018-09-16T16:22:29.359Z,79.50
2018-09-16T16:24:57.649Z,79.90
2018-09-16T16:27:25.872Z,80.00
2018-09-16T16:29:54.169Z,80.10
2018-09-16T16:32:22.373Z,80.00
2018-09-16T16:34:50.564Z,80.10
2018-09-16T16:37:19.137Z,80.20
2018-09-16T16:39:47.318Z,79.90
2018-09-16T16:42:15.529Z,79.40
2018-09-16T16:44:43.901Z,80.70
2018-09-16T16:47:12.072Z,79.90
2018-09-16T16:49:41.073Z,80.30
2018-09-16T16:52:09.351Z,80.70
2018-09-16T16:54:37.532Z,80.90
2018-09-16T16:57:05.750Z,80.90
2018-09-16T16:59:33.918Z,81.20
2018-09-16T17:02:02.181Z,81.50
2018-09-16T17:04:30.440Z,81.70
2018-09-16T17:06:58.749Z,81.40
2018-09-16T17:09:26.985Z,81.70
2018-09-16T17:11:55.444Z,82.30
2018-09-16T17:14:23.633Z,82.40
2018-09-16T17:16:51.860Z,82.10
2018-09-16T17:19:20.050Z,82.10
2018-09-16T17:21:48.278Z,82.90
2018-09-16T17:24:16.453Z,83.00
2018-09-16T17:26:44.704Z,83.50
2018-09-16T17:29:12.984Z,83.60
2018-09-16T17:31:41.177Z,83.70
2018-09-16T17:34:09.341Z,84.00
2018-09-16T17:36:37.546Z,84.40
2018-09-16T17:39:08.334Z,84.80
2018-09-16T17:41:36.558Z,85.40
2018-09-16T17:44:04.856Z,85.50
2018-09-16T17:46:33.284Z,85.70
2018-09-16T17:49:01.512Z,86.30
2018-09-16T17:51:29.684Z,85.80
2018-09-16T17:53:57.892Z,86.10
2018-09-16T17:56:26.203Z,86.20
2018-09-16T17:58:54.402Z,87.00
2018-09-16T18:01:22.949Z,86.50
2018-09-16T18:03:51.589Z,86.70
2018-09-16T18:06:19.869Z,86.40
2018-09-16T18:08:48.080Z,86.90
2018-09-16T18:11:16.300Z,86.60
2018-09-16T18:13:44.677Z,86.80
2018-09-16T18:16:13.021Z,86.80
2018-09-16T18:18:41.392Z,86.90
2018-09-16T18:21:10.268Z,87.20
2018-09-16T18:23:39.349Z,87.60
2018-09-16T18:26:07.553Z,87.90
2018-09-16T18:28:35.752Z,88.20
2018-09-16T18:31:05.557Z,87.70
2018-09-16T18:33:34.445Z,87.70
2018-09-16T18:36:02.770Z,87.90
2018-09-16T18:38:30.969Z,87.60
2018-09-16T18:41:00.134Z,87.70
2018-09-16T18:43:28.922Z,87.70
2018-09-16T18:45:57.040Z,88.30
2018-09-16T18:48:25.269Z,88.60
2018-09-16T18:50:53.627Z,89.20
2018-09-16T18:53:22.780Z,89.40
2018-09-16T18:55:52.114Z,89.40
2018-09-16T18:58:20.668Z,89.50
2018-09-16T19:00:49.404Z,90.20
2018-09-16T19:03:18.096Z,90.70
2018-09-16T19:05:46.293Z,90.30
2018-09-16T19:08:14.858Z,90.20
2018-09-16T19:10:44.289Z,90.10
2018-09-16T19:13:13.447Z,90.50
2018-09-16T19:15:41.717Z,90.50
2018-09-16T19:18:10.641Z,90.50
2018-09-16T19:20:39.089Z,91.10
2018-09-16T19:23:07.272Z,91.30
2018-09-16T19:25:37.049Z,91.60
2018-09-16T19:28:05.253Z,90.90
2018-09-16T19:30:34.813Z,91.40
2018-09-16T19:33:04.018Z,91.40
2018-09-16T19:35:32.229Z,91.40
2018-09-16T19:38:00.429Z,91.40
2018-09-16T19:40:28.632Z,91.50
2018-09-16T19:42:56.926Z,91.60
2018-09-16T19:45:25.901Z,91.70
2018-09-16T19:47:57.085Z,91.80
2018-09-16T19:50:25.308Z,92.30
2018-09-16T19:52:53.492Z,92.60
2018-09-16T19:55:21.709Z,92.60
2018-09-16T19:57:50.271Z,92.70
2018-09-16T20:00:18.488Z,92.70
2018-09-16T20:02:47.957Z,92.80
2018-09-16T20:05:16.173Z,92.80
2018-09-16T20:07:44.406Z,92.70
2018-09-16T20:10:12.629Z,92.60
2018-09-16T20:12:41.648Z,92.80
2018-09-16T20:15:09.824Z,93.00
2018-09-16T20:17:38.077Z,93.10
2018-09-16T20:20:07.282Z,93.00
2018-09-16T20:22:35.545Z,93.20
2018-09-16T20:25:04.193Z,93.30
2018-09-16T20:27:32.437Z,93.40
2018-09-16T20:30:00.605Z,93.50
2018-09-16T20:32:28.824Z,93.70
2018-09-16T20:34:57.413Z,93.30
2018-09-16T20:37:26.100Z,93.80
2018-09-16T20:39:54.715Z,93.40
2018-09-16T20:42:23.360Z,93.60
2018-09-16T20:44:52.058Z,93.40
2018-09-16T20:47:20.794Z,93.60
2018-09-16T20:49:49.497Z,93.50
2018-09-16T20:52:18.123Z,93.30
2018-09-16T20:54:46.730Z,93.40
2018-09-16T20:57:15.409Z,93.30
2018-09-16T20:59:44.046Z,93.30
2018-09-16T21:02:12.270Z,93.00
2018-09-16T21:04:40.539Z,93.00
2018-09-16T21:07:08.777Z,92.60
2018-09-16T21:09:37.061Z,92.80
2018-09-16T21:12:05.336Z,92.90
2018-09-16T21:14:33.532Z,92.90
2018-09-16T21:17:01.774Z,92.70
2018-09-16T21:19:29.992Z,92.50
2018-09-16T21:21:58.156Z,92.40
2018-09-16T21:24:26.357Z,92.40
2018-09-16T21:26:54.534Z,93.30
2018-09-16T21:29:22.736Z,93.80
2018-09-16T21:31:50.965Z,94.50
2018-09-16T21:34:19.165Z,94.90
2018-09-16T21:36:47.329Z,94.90
2018-09-16T21:39:15.650Z,94.70
2018-09-16T21:41:44.032Z,94.90
2018-09-16T21:44:12.301Z,94.60
2018-09-16T21:46:40.561Z,94.40
2018-09-16T21:49:08.781Z,94.30
2018-09-16T21:51:36.984Z,94.00
2018-09-16T21:54:05.228Z,94.10
2018-09-16T21:56:33.386Z,94.00
2018-09-16T21:59:01.585Z,94.10
2018-09-16T22:01:29.757Z,94.20
2018-09-16T22:03:58.125Z,94.10
2018-09-16T22:06:26.274Z,94.20
2018-09-16T22:08:54.481Z,94.50
2018-09-16T22:11:22.667Z,94.80
2018-09-16T22:13:50.869Z,95.50
2018-09-16T22:16:19.027Z,95.20
2018-09-16T22:18:47.477Z,95.00
2018-09-16T22:21:15.657Z,94.70
2018-09-16T22:23:43.909Z,94.30
2018-09-16T22:26:12.157Z,94.00
2018-09-16T22:28:40.352Z,94.20
2018-09-16T22:31:08.544Z,94.00
2018-09-16T22:33:37.228Z,94.70
2018-09-16T22:36:05.429Z,94.80
2018-09-16T22:38:33.647Z,95.70
2018-09-16T22:41:01.857Z,95.60
2018-09-16T22:43:30.025Z,96.00
2018-09-16T22:45:58.317Z,95.90
2018-09-16T22:48:26.573Z,95.90
2018-09-16T22:50:54.819Z,95.60
2018-09-16T22:53:22.989Z,96.30
2018-09-16T22:55:51.188Z,95.90
2018-09-16T22:58:19.351Z,95.40
2018-09-16T23:00:47.757Z,95.70
2018-09-16T23:03:15.928Z,95.70
2018-09-16T23:05:44.151Z,95.80
2018-09-16T23:08:12.296Z,95.80
2018-09-16T23:10:40.506Z,95.60
2018-09-16T23:13:08.741Z,95.60
2018-09-16T23:15:37.008Z,95.30
2018-09-16T23:18:05.261Z,95.40
2018-09-16T23:20:34.049Z,95.60
2018-09-16T23:23:02.220Z,95.60
2018-09-16T23:25:30.523Z,95.40
2018-09-16T23:27:58.729Z,95.40
2018-09-16T23:30:27.021Z,95.60
2018-09-16T23:32:55.192Z,95.70
2018-09-16T23:35:23.457Z,96.50
2018-09-16T23:37:51.633Z,96.10
2018-09-16T23:40:19.841Z,96.90
2018-09-16T23:42:48.001Z,97.80
2018-09-16T23:45:16.287Z,98.40
2018-09-16T23:47:44.492Z,98.10
2018-09-16T23:50:12.729Z,98.40
2018-09-16T23:52:40.909Z,98.50
2018-09-16T23:55:09.108Z,98.50
2018-09-16T23:57:37.285Z,98.50
